AFR23G KLAX-LFPG
Flight info
| Callsign | AFR23G |
|---|---|
| Flight time | N/A |
| Altitude | 31000 |
| Route | ORCKA5 LAS Q70 BLIPP Q842 WINEN DCT KU60O DCT KU72Q DCT KU09W/N0488F330 DCT 49N100W 5430N09000W 58N080W 5930N07000W DCT RODBO/M083F330 DCT PIDSO DCT 61N050W/M083F350 61N040W 60N030W 58N020W DCT SUNOT/N0480F350 DCT KESIX DCT REVNU/N0474F370 DCT CON DCT OSGAR DCT MORAG DCT NUCHU L18 MID/N0455F290 Y803 SFD UM605 BIBAX |
| Aircraft | B77W/H-SDE2E3FGHIJ3J5M1P2RWXYZ/LB1D1 |
Departure
| Time | N/A |
|---|---|
| Airport | Los Angeles International Airport (KLAX) |
Arrival
| Time | 2026-05-07 09:45 |
|---|---|
| Airport | Charles de Gaulle International Airport (LFPG) |
| Time | Latitude | Longitude | Altitude | Speed | Heading |
|---|---|---|---|---|---|
| 2026-05-07 07:53 | 56.56228 | -13.34728 | 34720 ft | 485 kts | 143° |
| 2026-05-07 07:53 | 56.52067 | -13.27830 | 34727 ft | 483 kts | 143° |
| 2026-05-07 07:54 | 56.47152 | -13.19711 | 34729 ft | 481 kts | 143° |
| 2026-05-07 07:54 | 56.42175 | -13.11520 | 34742 ft | 480 kts | 143° |
| 2026-05-07 07:55 | 56.37270 | -13.03476 | 34753 ft | 480 kts | 144° |
| 2026-05-07 07:55 | 56.34784 | -12.99415 | 34871 ft | 484 kts | 144° |
| 2026-05-07 07:55 | 56.32291 | -12.95347 | 35148 ft | 484 kts | 143° |
| 2026-05-07 07:55 | 56.29797 | -12.91282 | 35424 ft | 484 kts | 143° |
| 2026-05-07 07:56 | 56.27298 | -12.87217 | 35638 ft | 484 kts | 143° |
| 2026-05-07 07:56 | 56.24795 | -12.83153 | 35853 ft | 486 kts | 143° |
| 2026-05-07 07:56 | 56.22283 | -12.79081 | 36063 ft | 487 kts | 143° |
| 2026-05-07 07:56 | 56.19766 | -12.75010 | 36274 ft | 487 kts | 143° |
| 2026-05-07 07:57 | 56.17243 | -12.70934 | 36497 ft | 487 kts | 143° |
| 2026-05-07 07:57 | 56.14723 | -12.66869 | 36674 ft | 488 kts | 143° |
| 2026-05-07 07:57 | 56.12190 | -12.62796 | 36724 ft | 490 kts | 143° |
| 2026-05-07 07:58 | 56.07110 | -12.54643 | 36768 ft | 489 kts | 143° |
| 2026-05-07 07:58 | 56.02051 | -12.46553 | 36768 ft | 487 kts | 143° |
| 2026-05-07 07:59 | 55.97004 | -12.38515 | 36778 ft | 485 kts | 143° |
| 2026-05-07 07:59 | 55.91973 | -12.30533 | 36776 ft | 483 kts | 143° |
| 2026-05-07 08:00 | 55.86944 | -12.22583 | 36801 ft | 483 kts | 143° |
| 2026-05-07 08:00 | 55.81903 | -12.14645 | 36802 ft | 484 kts | 143° |
| 2026-05-07 08:01 | 55.76881 | -12.06762 | 36809 ft | 485 kts | 143° |
| 2026-05-07 08:01 | 55.71778 | -11.98781 | 36781 ft | 486 kts | 143° |
| 2026-05-07 08:02 | 55.66740 | -11.90928 | 36801 ft | 486 kts | 143° |
| 2026-05-07 08:02 | 55.61665 | -11.83045 | 36807 ft | 485 kts | 144° |
| 2026-05-07 08:03 | 55.56593 | -11.75196 | 36805 ft | 484 kts | 144° |
| 2026-05-07 08:03 | 55.51520 | -11.67374 | 36814 ft | 484 kts | 144° |
| 2026-05-07 08:04 | 55.46448 | -11.59582 | 36815 ft | 483 kts | 144° |
| 2026-05-07 08:04 | 55.41376 | -11.51818 | 36820 ft | 483 kts | 144° |
| 2026-05-07 08:05 | 55.36305 | -11.44082 | 36823 ft | 482 kts | 144° |
| 2026-05-07 08:05 | 55.31231 | -11.36368 | 36823 ft | 482 kts | 144° |
| 2026-05-07 08:06 | 55.26152 | -11.28674 | 36802 ft | 482 kts | 144° |
| 2026-05-07 08:06 | 55.21079 | -11.21016 | 36827 ft | 481 kts | 144° |
| 2026-05-07 08:07 | 55.16014 | -11.13396 | 36834 ft | 480 kts | 144° |
| 2026-05-07 08:07 | 55.10950 | -11.05805 | 36838 ft | 479 kts | 144° |
| 2026-05-07 08:08 | 55.05891 | -10.98247 | 36840 ft | 478 kts | 144° |
| 2026-05-07 08:08 | 55.00868 | -10.90769 | 36838 ft | 477 kts | 144° |
| 2026-05-07 08:09 | 54.95791 | -10.83236 | 36850 ft | 476 kts | 144° |
| 2026-05-07 08:09 | 54.90785 | -10.75834 | 36855 ft | 475 kts | 144° |
| 2026-05-07 08:10 | 54.85711 | -10.68358 | 36856 ft | 475 kts | 144° |
| 2026-05-07 08:10 | 54.80705 | -10.61005 | 36858 ft | 475 kts | 144° |
| 2026-05-07 08:11 | 54.75662 | -10.53624 | 36860 ft | 474 kts | 144° |
| 2026-05-07 08:11 | 54.70616 | -10.46263 | 36872 ft | 474 kts | 144° |
| 2026-05-07 08:12 | 54.65566 | -10.38920 | 36875 ft | 475 kts | 144° |
| 2026-05-07 08:12 | 54.60507 | -10.31589 | 36886 ft | 475 kts | 144° |
| 2026-05-07 08:13 | 54.55438 | -10.24266 | 36853 ft | 475 kts | 143° |
| 2026-05-07 08:13 | 54.50371 | -10.16970 | 36881 ft | 475 kts | 143° |
| 2026-05-07 08:14 | 54.45601 | -10.09060 | 36885 ft | 480 kts | 134° |
| 2026-05-07 08:14 | 54.41599 | -9.99828 | 36894 ft | 483 kts | 129° |
| 2026-05-07 08:15 | 54.37696 | -9.90445 | 36913 ft | 483 kts | 129° |
| 2026-05-07 08:15 | 54.33761 | -9.81101 | 36898 ft | 483 kts | 129° |
| 2026-05-07 08:16 | 54.29806 | -9.71805 | 36901 ft | 483 kts | 129° |
| 2026-05-07 08:16 | 54.25840 | -9.62531 | 36903 ft | 483 kts | 129° |
| 2026-05-07 08:17 | 54.21869 | -9.53278 | 36892 ft | 483 kts | 129° |
| 2026-05-07 08:17 | 54.17892 | -9.44042 | 36903 ft | 482 kts | 129° |
| 2026-05-07 08:18 | 54.13912 | -9.34832 | 36904 ft | 482 kts | 129° |
| 2026-05-07 08:18 | 54.09931 | -9.25655 | 36896 ft | 481 kts | 129° |
| 2026-05-07 08:19 | 54.05948 | -9.16504 | 36910 ft | 480 kts | 129° |
| 2026-05-07 08:19 | 54.01962 | -9.07381 | 36910 ft | 480 kts | 129° |
| 2026-05-07 08:20 | 53.97973 | -8.98283 | 36915 ft | 480 kts | 129° |
| 2026-05-07 08:20 | 53.94003 | -8.89256 | 36906 ft | 480 kts | 129° |
| 2026-05-07 08:21 | 53.89943 | -8.80283 | 36903 ft | 478 kts | 133° |
| 2026-05-07 08:21 | 53.85471 | -8.71961 | 36912 ft | 477 kts | 136° |
| 2026-05-07 08:22 | 53.80935 | -8.63771 | 36918 ft | 476 kts | 135° |
| 2026-05-07 08:22 | 53.76444 | -8.55530 | 36917 ft | 476 kts | 134° |
| 2026-05-07 08:23 | 53.71977 | -8.47252 | 36918 ft | 477 kts | 135° |
| 2026-05-07 08:23 | 53.67503 | -8.39001 | 36920 ft | 477 kts | 134° |
| 2026-05-07 08:24 | 53.63017 | -8.30778 | 36928 ft | 476 kts | 134° |
| 2026-05-07 08:24 | 53.58516 | -8.22587 | 36929 ft | 476 kts | 134° |
| 2026-05-07 08:25 | 53.54012 | -8.14420 | 36943 ft | 476 kts | 134° |
| 2026-05-07 08:25 | 53.49504 | -8.06267 | 36943 ft | 476 kts | 134° |
| 2026-05-07 08:26 | 53.42735 | -7.94072 | 36942 ft | 476 kts | 134° |
| 2026-05-07 08:26 | 53.38221 | -7.85973 | 36945 ft | 475 kts | 134° |
| 2026-05-07 08:27 | 53.33705 | -7.77897 | 36947 ft | 475 kts | 134° |
| 2026-05-07 08:27 | 53.29185 | -7.69842 | 36934 ft | 475 kts | 134° |
| 2026-05-07 08:28 | 53.24662 | -7.61807 | 36967 ft | 474 kts | 134° |
| 2026-05-07 08:28 | 53.20134 | -7.53789 | 36953 ft | 474 kts | 135° |
| 2026-05-07 08:29 | 53.15606 | -7.45795 | 36947 ft | 474 kts | 135° |
| 2026-05-07 08:29 | 53.11075 | -7.37821 | 36952 ft | 474 kts | 135° |
| 2026-05-07 08:30 | 53.06698 | -7.29619 | 36955 ft | 475 kts | 126° |
| 2026-05-07 08:30 | 53.03674 | -7.19844 | 36958 ft | 479 kts | 110° |
| 2026-05-07 08:31 | 53.01924 | -7.09175 | 36958 ft | 479 kts | 105° |
| 2026-05-07 08:31 | 53.00281 | -6.98460 | 36970 ft | 479 kts | 106° |
| 2026-05-07 08:32 | 52.98588 | -6.87768 | 36978 ft | 479 kts | 106° |
| 2026-05-07 08:32 | 52.96867 | -6.77173 | 36964 ft | 479 kts | 106° |
| 2026-05-07 08:33 | 52.95117 | -6.66521 | 36976 ft | 479 kts | 106° |
| 2026-05-07 08:33 | 52.93360 | -6.55883 | 36977 ft | 479 kts | 107° |
| 2026-05-07 08:34 | 52.91594 | -6.45245 | 36977 ft | 479 kts | 107° |
| 2026-05-07 08:34 | 52.89819 | -6.34616 | 36978 ft | 479 kts | 107° |
| 2026-05-07 08:35 | 52.88035 | -6.23997 | 36982 ft | 479 kts | 107° |
| 2026-05-07 08:35 | 52.86242 | -6.13391 | 36987 ft | 479 kts | 107° |
| 2026-05-07 08:36 | 52.84440 | -6.02794 | 36985 ft | 478 kts | 107° |
| 2026-05-07 08:36 | 52.82632 | -5.92230 | 36982 ft | 477 kts | 107° |
| 2026-05-07 08:37 | 52.80819 | -5.81697 | 36987 ft | 476 kts | 107° |
| 2026-05-07 08:37 | 52.79000 | -5.71189 | 36991 ft | 475 kts | 107° |
| 2026-05-07 08:38 | 52.77175 | -5.60701 | 36992 ft | 475 kts | 107° |
| 2026-05-07 08:38 | 52.75251 | -5.50286 | 36987 ft | 474 kts | 112° |
| 2026-05-07 08:39 | 52.72434 | -5.40485 | 37011 ft | 473 kts | 119° |
| 2026-05-07 08:39 | 52.69371 | -5.30884 | 37002 ft | 473 kts | 118° |
| 2026-05-07 08:40 | 52.66319 | -5.21269 | 37001 ft | 474 kts | 118° |
| 2026-05-07 08:40 | 52.63297 | -5.11697 | 37016 ft | 474 kts | 118° |
| 2026-05-07 08:41 | 52.60261 | -5.02087 | 37008 ft | 473 kts | 118° |
| 2026-05-07 08:41 | 52.57228 | -4.92517 | 37007 ft | 471 kts | 118° |
| 2026-05-07 08:42 | 52.54195 | -4.82993 | 37003 ft | 470 kts | 118° |
| 2026-05-07 08:42 | 52.51652 | -4.75039 | 37009 ft | 469 kts | 118° |
| 2026-05-07 08:43 | 52.48611 | -4.65558 | 37014 ft | 469 kts | 118° |
| 2026-05-07 08:43 | 52.45562 | -4.56089 | 37014 ft | 470 kts | 118° |
| 2026-05-07 08:44 | 52.42520 | -4.46682 | 37018 ft | 471 kts | 118° |
| 2026-05-07 08:44 | 52.39449 | -4.37218 | 37016 ft | 470 kts | 118° |
| 2026-05-07 08:45 | 52.36371 | -4.27769 | 37021 ft | 470 kts | 118° |
| 2026-05-07 08:45 | 52.33288 | -4.18342 | 37014 ft | 470 kts | 118° |
| 2026-05-07 08:46 | 52.30201 | -4.08937 | 37018 ft | 470 kts | 118° |
| 2026-05-07 08:46 | 52.27106 | -3.99545 | 37026 ft | 469 kts | 118° |
| 2026-05-07 08:47 | 52.24005 | -3.90168 | 37017 ft | 470 kts | 118° |
| 2026-05-07 08:47 | 52.20891 | -3.80792 | 37025 ft | 471 kts | 118° |
| 2026-05-07 08:48 | 52.17767 | -3.71418 | 37027 ft | 471 kts | 118° |
| 2026-05-07 08:48 | 52.14628 | -3.62035 | 37037 ft | 472 kts | 118° |
| 2026-05-07 08:49 | 52.11481 | -3.52664 | 37041 ft | 472 kts | 118° |
| 2026-05-07 08:49 | 52.08346 | -3.43364 | 37031 ft | 472 kts | 118° |
| 2026-05-07 08:50 | 52.05184 | -3.34019 | 37040 ft | 472 kts | 119° |
| 2026-05-07 08:50 | 52.02013 | -3.24682 | 37048 ft | 472 kts | 119° |
| 2026-05-07 08:51 | 51.98833 | -3.15353 | 37047 ft | 473 kts | 119° |
| 2026-05-07 08:51 | 51.95638 | -3.06015 | 37065 ft | 474 kts | 119° |
| 2026-05-07 08:52 | 51.92431 | -2.96678 | 37067 ft | 475 kts | 119° |
| 2026-05-07 08:52 | 51.89211 | -2.87338 | 37071 ft | 475 kts | 119° |
| 2026-05-07 08:53 | 51.85980 | -2.77999 | 37055 ft | 476 kts | 119° |
| 2026-05-07 08:53 | 51.82738 | -2.68667 | 37065 ft | 476 kts | 119° |
| 2026-05-07 08:54 | 51.79491 | -2.59350 | 37061 ft | 476 kts | 120° |
| 2026-05-07 08:54 | 51.76235 | -2.50043 | 37061 ft | 476 kts | 120° |
| 2026-05-07 08:55 | 51.72967 | -2.40739 | 37070 ft | 477 kts | 120° |
| 2026-05-07 08:55 | 51.69683 | -2.31422 | 37073 ft | 478 kts | 120° |
| 2026-05-07 08:56 | 51.66385 | -2.22103 | 37071 ft | 480 kts | 120° |
| 2026-05-07 08:56 | 51.63074 | -2.12775 | 37069 ft | 480 kts | 120° |
| 2026-05-07 08:57 | 51.59747 | -2.03442 | 37076 ft | 481 kts | 120° |
| 2026-05-07 08:57 | 51.56412 | -1.94117 | 37064 ft | 481 kts | 120° |
| 2026-05-07 08:58 | 51.53070 | -1.84806 | 37077 ft | 482 kts | 120° |
| 2026-05-07 08:58 | 51.49714 | -1.75485 | 37066 ft | 483 kts | 121° |
| 2026-05-07 08:59 | 51.46414 | -1.66183 | 37059 ft | 483 kts | 117° |
| 2026-05-07 08:59 | 51.43555 | -1.56434 | 37069 ft | 483 kts | 115° |
| 2026-05-07 09:00 | 51.40728 | -1.46661 | 37064 ft | 483 kts | 116° |
| 2026-05-07 09:00 | 51.37865 | -1.36921 | 37057 ft | 483 kts | 116° |
| 2026-05-07 09:01 | 51.34987 | -1.27200 | 37073 ft | 483 kts | 116° |
| 2026-05-07 09:01 | 51.31711 | -1.17841 | 37058 ft | 483 kts | 124° |
| 2026-05-07 09:02 | 51.27672 | -1.09291 | 37077 ft | 483 kts | 128° |
| 2026-05-07 09:02 | 51.23614 | -1.00747 | 37078 ft | 483 kts | 128° |
| 2026-05-07 09:03 | 51.19559 | -0.92178 | 37075 ft | 484 kts | 128° |
| 2026-05-07 09:03 | 51.15491 | -0.83617 | 37077 ft | 485 kts | 128° |
| 2026-05-07 09:04 | 51.11416 | -0.75070 | 37071 ft | 485 kts | 128° |
| 2026-05-07 09:04 | 51.07331 | -0.66528 | 37074 ft | 485 kts | 128° |
| 2026-05-07 09:05 | 51.03469 | -0.57741 | 37079 ft | 485 kts | 122° |
| 2026-05-07 09:05 | 50.99949 | -0.48605 | 37076 ft | 485 kts | 122° |
| 2026-05-07 09:06 | 50.96412 | -0.39495 | 37076 ft | 485 kts | 123° |
| 2026-05-07 09:06 | 50.92866 | -0.30402 | 37072 ft | 484 kts | 123° |
| 2026-05-07 09:07 | 50.89318 | -0.21331 | 37079 ft | 484 kts | 123° |
| 2026-05-07 09:07 | 50.85762 | -0.12275 | 37068 ft | 484 kts | 123° |
| 2026-05-07 09:08 | 50.82202 | -0.03231 | 37075 ft | 484 kts | 123° |
| 2026-05-07 09:08 | 50.78623 | 0.05800 | 37081 ft | 485 kts | 124° |
| 2026-05-07 09:09 | 50.74399 | 0.14075 | 37078 ft | 484 kts | 135° |
| 2026-05-07 09:09 | 50.69325 | 0.21028 | 37086 ft | 483 kts | 142° |
| 2026-05-07 09:10 | 50.64024 | 0.27609 | 36261 ft | 490 kts | 142° |
| 2026-05-07 09:10 | 50.61438 | 0.30873 | 35613 ft | 476 kts | 142° |
| 2026-05-07 09:10 | 50.58890 | 0.34112 | 34921 ft | 464 kts | 142° |
| 2026-05-07 09:11 | 50.56407 | 0.37275 | 34467 ft | 457 kts | 142° |
| 2026-05-07 09:11 | 50.53944 | 0.40411 | 33951 ft | 454 kts | 142° |
| 2026-05-07 09:11 | 50.51492 | 0.43528 | 33392 ft | 451 kts | 142° |
| 2026-05-07 09:11 | 50.49062 | 0.46612 | 32895 ft | 447 kts | 142° |
| 2026-05-07 09:12 | 50.46650 | 0.49668 | 32431 ft | 443 kts | 142° |
| 2026-05-07 09:12 | 50.44265 | 0.52681 | 31943 ft | 439 kts | 143° |
| 2026-05-07 09:12 | 50.41890 | 0.55677 | 31462 ft | 436 kts | 143° |
| 2026-05-07 09:12 | 50.39535 | 0.58645 | 31010 ft | 432 kts | 143° |
| 2026-05-07 09:13 | 50.37197 | 0.61587 | 30555 ft | 429 kts | 143° |
| 2026-05-07 09:13 | 50.34878 | 0.64503 | 30098 ft | 426 kts | 143° |
| 2026-05-07 09:13 | 50.32573 | 0.67401 | 29584 ft | 424 kts | 143° |
| 2026-05-07 09:13 | 50.30287 | 0.70275 | 29111 ft | 420 kts | 143° |
| 2026-05-07 09:14 | 50.28022 | 0.73121 | 28634 ft | 416 kts | 143° |
| 2026-05-07 09:14 | 50.25773 | 0.75944 | 28156 ft | 413 kts | 143° |
| 2026-05-07 09:14 | 50.23542 | 0.78742 | 27705 ft | 410 kts | 143° |
| 2026-05-07 09:14 | 50.21325 | 0.81518 | 27257 ft | 407 kts | 143° |
| 2026-05-07 09:15 | 50.19121 | 0.84271 | 26784 ft | 404 kts | 143° |
| 2026-05-07 09:15 | 50.16931 | 0.87001 | 26337 ft | 402 kts | 143° |
| 2026-05-07 09:15 | 50.14749 | 0.89711 | 25900 ft | 400 kts | 143° |
| 2026-05-07 09:15 | 50.12579 | 0.92402 | 25442 ft | 398 kts | 143° |
| 2026-05-07 09:16 | 50.10419 | 0.95080 | 25015 ft | 396 kts | 143° |
| 2026-05-07 09:16 | 50.08271 | 0.97741 | 24569 ft | 394 kts | 143° |
| 2026-05-07 09:16 | 50.06126 | 1.00384 | 24144 ft | 392 kts | 144° |
| 2026-05-07 09:16 | 50.03837 | 1.02631 | 23782 ft | 388 kts | 154° |
| 2026-05-07 09:17 | 50.01402 | 1.04469 | 23422 ft | 392 kts | 156° |
| 2026-05-07 09:17 | 49.98910 | 1.06247 | 23031 ft | 395 kts | 156° |
| 2026-05-07 09:17 | 49.96410 | 1.08026 | 22632 ft | 395 kts | 156° |
| 2026-05-07 09:17 | 49.93956 | 1.09796 | 22271 ft | 393 kts | 156° |
| 2026-05-07 09:18 | 49.91494 | 1.11598 | 21918 ft | 390 kts | 156° |
| 2026-05-07 09:18 | 49.89054 | 1.13403 | 21558 ft | 387 kts | 155° |
| 2026-05-07 09:18 | 49.86639 | 1.15200 | 21220 ft | 383 kts | 155° |
| 2026-05-07 09:18 | 49.84250 | 1.16983 | 20878 ft | 380 kts | 155° |
| 2026-05-07 09:19 | 49.81879 | 1.18754 | 20537 ft | 377 kts | 155° |
| 2026-05-07 09:19 | 49.79529 | 1.20510 | 20195 ft | 374 kts | 155° |
| 2026-05-07 09:19 | 49.77189 | 1.22255 | 19868 ft | 372 kts | 155° |
| 2026-05-07 09:19 | 49.74864 | 1.23987 | 19517 ft | 370 kts | 155° |
| 2026-05-07 09:20 | 49.72555 | 1.25706 | 19212 ft | 368 kts | 155° |
| 2026-05-07 09:20 | 49.70255 | 1.27415 | 18880 ft | 366 kts | 155° |
| 2026-05-07 09:20 | 49.67961 | 1.29118 | 18556 ft | 365 kts | 155° |
| 2026-05-07 09:20 | 49.65680 | 1.30811 | 18218 ft | 364 kts | 155° |
| 2026-05-07 09:21 | 49.63400 | 1.32500 | 17844 ft | 362 kts | 155° |
| 2026-05-07 09:21 | 49.61134 | 1.34177 | 17505 ft | 361 kts | 155° |
| 2026-05-07 09:21 | 49.58876 | 1.35847 | 17178 ft | 359 kts | 155° |
| 2026-05-07 09:21 | 49.56627 | 1.37508 | 16879 ft | 357 kts | 155° |
| 2026-05-07 09:22 | 49.54390 | 1.39159 | 16556 ft | 357 kts | 155° |
| 2026-05-07 09:22 | 49.52152 | 1.40808 | 16231 ft | 357 kts | 155° |
| 2026-05-07 09:22 | 49.49915 | 1.42454 | 15890 ft | 356 kts | 155° |
| 2026-05-07 09:22 | 49.47686 | 1.44093 | 15577 ft | 354 kts | 155° |
| 2026-05-07 09:23 | 49.45469 | 1.45723 | 15253 ft | 352 kts | 155° |
| 2026-05-07 09:23 | 49.43265 | 1.47341 | 14941 ft | 350 kts | 155° |
| 2026-05-07 09:23 | 49.41074 | 1.48949 | 14630 ft | 348 kts | 155° |
| 2026-05-07 09:23 | 49.38898 | 1.50546 | 14315 ft | 346 kts | 155° |
| 2026-05-07 09:24 | 49.36731 | 1.52133 | 14004 ft | 344 kts | 155° |
| 2026-05-07 09:24 | 49.34576 | 1.53709 | 13664 ft | 342 kts | 155° |
| 2026-05-07 09:24 | 49.32462 | 1.55333 | 13327 ft | 336 kts | 148° |
| 2026-05-07 09:24 | 49.30799 | 1.57807 | 13143 ft | 336 kts | 123° |
| 2026-05-07 09:25 | 49.29851 | 1.61092 | 13081 ft | 340 kts | 103° |
| 2026-05-07 09:25 | 49.29571 | 1.64702 | 13075 ft | 344 kts | 93° |
| 2026-05-07 09:25 | 49.29458 | 1.68375 | 13068 ft | 346 kts | 93° |
| 2026-05-07 09:25 | 49.29321 | 1.72055 | 13069 ft | 346 kts | 94° |
| 2026-05-07 09:26 | 49.29167 | 1.75733 | 13077 ft | 346 kts | 94° |
| 2026-05-07 09:26 | 49.29005 | 1.79410 | 13057 ft | 347 kts | 94° |
| 2026-05-07 09:26 | 49.28838 | 1.83100 | 13051 ft | 347 kts | 94° |
| 2026-05-07 09:26 | 49.28671 | 1.86774 | 13029 ft | 345 kts | 94° |
| 2026-05-07 09:27 | 49.28502 | 1.90429 | 12747 ft | 343 kts | 94° |
| 2026-05-07 09:27 | 49.28336 | 1.94005 | 12379 ft | 340 kts | 94° |
| 2026-05-07 09:27 | 49.28004 | 2.01107 | 11900 ft | 324 kts | 94° |
| 2026-05-07 09:28 | 49.27845 | 2.04491 | 11815 ft | 313 kts | 94° |
| 2026-05-07 09:28 | 49.27690 | 2.07760 | 11720 ft | 302 kts | 94° |
| 2026-05-07 09:28 | 49.27539 | 2.10914 | 11576 ft | 293 kts | 94° |
| 2026-05-07 09:28 | 49.27392 | 2.13994 | 11370 ft | 287 kts | 94° |
| 2026-05-07 09:29 | 49.27245 | 2.17026 | 11154 ft | 282 kts | 94° |
| 2026-05-07 09:29 | 49.27102 | 2.19978 | 11104 ft | 277 kts | 94° |
| 2026-05-07 09:29 | 49.26958 | 2.22944 | 11085 ft | 282 kts | 95° |
| 2026-05-07 09:29 | 49.26809 | 2.25973 | 11091 ft | 288 kts | 95° |
| 2026-05-07 09:30 | 49.26659 | 2.29033 | 11067 ft | 288 kts | 95° |
| 2026-05-07 09:30 | 49.26508 | 2.32086 | 11073 ft | 287 kts | 95° |
| 2026-05-07 09:30 | 49.26356 | 2.35124 | 11061 ft | 285 kts | 95° |
| 2026-05-07 09:30 | 49.26205 | 2.38143 | 11071 ft | 284 kts | 95° |
| 2026-05-07 09:31 | 49.26053 | 2.41160 | 11079 ft | 284 kts | 95° |
| 2026-05-07 09:31 | 49.25900 | 2.44183 | 11066 ft | 285 kts | 95° |
| 2026-05-07 09:31 | 49.25746 | 2.47207 | 11069 ft | 285 kts | 95° |
| 2026-05-07 09:31 | 49.25592 | 2.50222 | 11055 ft | 285 kts | 95° |
| 2026-05-07 09:32 | 49.25379 | 2.53234 | 11065 ft | 284 kts | 99° |
| 2026-05-07 09:32 | 49.25154 | 2.55201 | 11072 ft | 284 kts | 101° |
| 2026-05-07 09:32 | 49.24780 | 2.58167 | 11072 ft | 284 kts | 101° |
| 2026-05-07 09:32 | 49.24410 | 2.61135 | 11068 ft | 284 kts | 101° |
| 2026-05-07 09:33 | 49.24048 | 2.64118 | 11081 ft | 286 kts | 101° |
| 2026-05-07 09:33 | 49.23689 | 2.67122 | 11026 ft | 287 kts | 101° |
| 2026-05-07 09:33 | 49.23346 | 2.70124 | 10791 ft | 286 kts | 100° |
| 2026-05-07 09:33 | 49.23028 | 2.73113 | 10502 ft | 283 kts | 100° |
| 2026-05-07 09:34 | 49.22718 | 2.76079 | 10207 ft | 282 kts | 100° |
| 2026-05-07 09:34 | 49.22411 | 2.79029 | 9886 ft | 280 kts | 100° |
| 2026-05-07 09:34 | 49.22106 | 2.81963 | 9565 ft | 279 kts | 100° |
| 2026-05-07 09:34 | 49.21803 | 2.84880 | 9245 ft | 276 kts | 100° |
| 2026-05-07 09:35 | 49.21501 | 2.87767 | 8918 ft | 272 kts | 100° |
| 2026-05-07 09:35 | 49.21205 | 2.90596 | 8371 ft | 269 kts | 100° |
| 2026-05-07 09:35 | 49.20909 | 2.93417 | 7796 ft | 268 kts | 100° |
| 2026-05-07 09:35 | 49.20524 | 2.96174 | 7262 ft | 264 kts | 113° |
| 2026-05-07 09:36 | 49.19494 | 2.98431 | 6727 ft | 259 kts | 138° |
| 2026-05-07 09:36 | 49.18115 | 3.00174 | 6203 ft | 256 kts | 141° |
| 2026-05-07 09:36 | 49.16730 | 3.01864 | 5666 ft | 254 kts | 141° |
| 2026-05-07 09:36 | 49.15373 | 3.03507 | 5444 ft | 242 kts | 142° |
| 2026-05-07 09:37 | 49.14026 | 3.05130 | 5360 ft | 253 kts | 142° |
| 2026-05-07 09:37 | 49.12625 | 3.06811 | 5215 ft | 259 kts | 142° |
| 2026-05-07 09:37 | 49.11191 | 3.08526 | 4851 ft | 264 kts | 142° |
| 2026-05-07 09:37 | 49.09714 | 3.10176 | 4436 ft | 261 kts | 152° |
| 2026-05-07 09:38 | 49.07976 | 3.10865 | 4060 ft | 260 kts | 182° |
| 2026-05-07 09:38 | 49.06288 | 3.10127 | 3998 ft | 252 kts | 212° |
| 2026-05-07 09:38 | 49.04877 | 3.08499 | 4002 ft | 257 kts | 220° |
| 2026-05-07 09:38 | 49.03537 | 3.06706 | 3984 ft | 255 kts | 221° |
| 2026-05-07 09:39 | 49.02308 | 3.04851 | 3947 ft | 242 kts | 236° |
| 2026-05-07 09:39 | 49.01752 | 3.02524 | 3984 ft | 233 kts | 264° |
| 2026-05-07 09:39 | 49.01612 | 3.00066 | 3996 ft | 234 kts | 265° |
| 2026-05-07 09:39 | 49.01472 | 2.97601 | 3989 ft | 233 kts | 265° |
| 2026-05-07 09:40 | 49.01341 | 2.95196 | 3978 ft | 220 kts | 265° |
| 2026-05-07 09:40 | 49.01224 | 2.92970 | 3991 ft | 203 kts | 265° |
| 2026-05-07 09:40 | 49.01115 | 2.90904 | 3969 ft | 191 kts | 265° |
| 2026-05-07 09:40 | 49.01009 | 2.88895 | 3980 ft | 191 kts | 265° |
| 2026-05-07 09:41 | 49.00901 | 2.86848 | 3802 ft | 198 kts | 265° |
| 2026-05-07 09:41 | 49.00792 | 2.84793 | 3548 ft | 196 kts | 266° |
| 2026-05-07 09:41 | 49.00684 | 2.82771 | 3294 ft | 189 kts | 266° |
| 2026-05-07 09:41 | 49.00580 | 2.80807 | 3031 ft | 183 kts | 266° |
| 2026-05-07 09:42 | 49.00478 | 2.78896 | 2797 ft | 179 kts | 266° |
| 2026-05-07 09:42 | 49.00381 | 2.77075 | 2534 ft | 166 kts | 266° |
| 2026-05-07 09:42 | 49.00289 | 2.75329 | 2366 ft | 166 kts | 266° |
| 2026-05-07 09:42 | 49.00196 | 2.73584 | 2103 ft | 162 kts | 267° |
| 2026-05-07 09:43 | 49.00108 | 2.71935 | 1884 ft | 152 kts | 266° |
| 2026-05-07 09:43 | 49.00024 | 2.70334 | 1697 ft | 153 kts | 266° |
| 2026-05-07 09:43 | 48.99933 | 2.68715 | 1449 ft | 152 kts | 266° |
| 2026-05-07 09:43 | 48.99849 | 2.67120 | 1214 ft | 150 kts | 266° |
| 2026-05-07 09:44 | 48.99765 | 2.65539 | 1013 ft | 150 kts | 266° |
| 2026-05-07 09:44 | 48.99680 | 2.63949 | 839 ft | 150 kts | 267° |
| 2026-05-07 09:44 | 48.99601 | 2.62357 | 648 ft | 151 kts | 266° |
| 2026-05-07 09:44 | 48.99509 | 2.60770 | 463 ft | 150 kts | 266° |
| 2026-05-07 09:45 | 48.99433 | 2.59194 | 360 ft | 144 kts | 264° |
| 2026-05-07 09:45 | 48.99365 | 2.57898 | 361 ft | 102 kts | 265° |
| 2026-05-07 09:45 | 48.99318 | 2.57044 | 357 ft | 51 kts | 265° |
| 2026-05-07 09:45 | 48.99365 | 2.56710 | 366 ft | 23 kts | 312° |
| 2026-05-07 09:46 | 48.99508 | 2.56640 | 366 ft | 22 kts | 354° |
| 2026-05-07 09:46 | 48.99661 | 2.56619 | 365 ft | 22 kts | 355° |
| 2026-05-07 09:46 | 48.99816 | 2.56599 | 362 ft | 22 kts | 355° |
| 2026-05-07 09:46 | 48.99904 | 2.56620 | 366 ft | 13 kts | 45° |
| 2026-05-07 09:47 | 48.99929 | 2.56783 | 365 ft | 21 kts | 85° |
| 2026-05-07 09:47 | 48.99941 | 2.57004 | 362 ft | 21 kts | 85° |
| 2026-05-07 09:47 | 48.99953 | 2.57226 | 363 ft | 21 kts | 85° |
| 2026-05-07 09:47 | 48.99965 | 2.57447 | 359 ft | 21 kts | 85° |
| 2026-05-07 09:48 | 48.99976 | 2.57657 | 365 ft | 10 kts | 84° |
| 2026-05-07 09:48 | 49.00019 | 2.57730 | 366 ft | 11 kts | 19° |
| 2026-05-07 09:48 | 49.00064 | 2.57822 | 366 ft | 12 kts | 79° |
| 2026-05-07 09:48 | 49.00076 | 2.57909 | 368 ft | 6 kts | 53° |
| 2026-05-07 09:49 | 49.00122 | 2.57922 | 361 ft | 7 kts | 356° |
| 2026-05-07 09:49 | 49.00152 | 2.57918 | 367 ft | 2 kts | 355° |
| 2026-05-07 09:49 | 49.00153 | 2.57918 | 359 ft | 0 kts | 355° |